createdAt,value
2018-08-02T00:00:15.925Z,22.98
2018-08-02T00:01:15.216Z,22.92
2018-08-02T00:02:15.234Z,22.90
2018-08-02T00:03:15.254Z,22.88
2018-08-02T00:04:15.273Z,22.86
2018-08-02T00:05:15.287Z,22.88
2018-08-02T00:06:15.305Z,22.94
2018-08-02T00:07:15.323Z,22.91
2018-08-02T00:08:15.342Z,22.92
2018-08-02T00:09:15.362Z,22.92
2018-08-02T00:10:15.381Z,22.90
2018-08-02T00:11:15.395Z,22.91
2018-08-02T00:12:15.413Z,23.00
2018-08-02T00:13:15.434Z,22.95
2018-08-02T00:14:15.448Z,22.94
2018-08-02T00:15:15.466Z,22.94
2018-08-02T00:16:15.485Z,22.95
2018-08-02T00:17:15.505Z,22.91
2018-08-02T00:18:15.520Z,22.91
2018-08-02T00:19:15.589Z,22.88
2018-08-02T00:20:15.565Z,22.88
2018-08-02T00:21:15.725Z,22.86
2018-08-02T00:22:15.951Z,22.80
2018-08-02T00:23:15.628Z,22.88
2018-08-02T00:24:15.633Z,22.85
2018-08-02T00:25:15.646Z,22.76
2018-08-02T00:26:15.664Z,22.82
2018-08-02T00:27:15.709Z,22.82
2018-08-02T00:28:15.698Z,22.85
2018-08-02T00:29:15.720Z,22.80
2018-08-02T00:30:15.734Z,22.83
2018-08-02T00:31:15.814Z,22.73
2018-08-02T00:32:16.191Z,22.77
2018-08-02T00:33:15.802Z,22.80
2018-08-02T00:34:15.809Z,22.75
2018-08-02T00:35:15.824Z,22.75
2018-08-02T00:36:15.842Z,22.64
2018-08-02T00:37:15.864Z,22.61
2018-08-02T00:38:15.879Z,22.61
2018-08-02T00:39:15.895Z,22.51
2018-08-02T00:40:15.914Z,22.62
2018-08-02T00:41:15.932Z,22.58
2018-08-02T00:42:15.950Z,22.65
2018-08-02T00:43:15.977Z,22.57
2018-08-02T00:44:15.985Z,22.52
2018-08-02T00:45:16.002Z,22.51
2018-08-02T00:46:16.019Z,22.54
2018-08-02T00:47:16.050Z,22.55
2018-08-02T00:48:16.059Z,22.62
2018-08-02T00:49:16.075Z,22.54
2018-08-02T00:50:16.098Z,22.51
2018-08-02T00:51:16.114Z,22.51
2018-08-02T00:52:16.128Z,22.46
2018-08-02T00:53:16.449Z,22.54
2018-08-02T00:54:16.164Z,22.64
2018-08-02T00:55:16.218Z,22.42
2018-08-02T00:56:16.260Z,22.54
2018-08-02T00:57:16.219Z,22.39
2018-08-02T00:58:16.236Z,22.52
2018-08-02T00:59:16.256Z,22.43
2018-08-02T01:00:16.271Z,22.52
2018-08-02T01:01:16.468Z,22.55
2018-08-02T01:02:16.311Z,22.54
2018-08-02T01:05:16.542Z,22.35
2018-08-02T01:06:16.439Z,22.37
2018-08-02T01:07:16.395Z,22.46
2018-08-02T01:08:16.416Z,22.42
2018-08-02T01:09:16.430Z,22.37
2018-08-02T01:10:16.458Z,22.35
2018-08-02T01:11:16.466Z,22.36
2018-08-02T01:12:16.484Z,22.40
2018-08-02T01:13:16.506Z,22.42
2018-08-02T01:14:16.521Z,22.36
2018-08-02T01:15:16.540Z,22.39
2018-08-02T01:16:16.554Z,22.35
2018-08-02T01:17:16.572Z,22.42
2018-08-02T01:18:16.591Z,22.40
2018-08-02T01:19:16.608Z,22.35
2018-08-02T01:20:16.625Z,22.31
2018-08-02T01:21:16.644Z,22.28
2018-08-02T01:22:16.663Z,22.27
2018-08-02T01:23:16.685Z,22.35
2018-08-02T01:24:16.734Z,22.27
2018-08-02T01:25:16.780Z,22.20
2018-08-02T01:26:16.787Z,22.27
2018-08-02T01:27:16.797Z,22.09
2018-08-02T01:28:16.830Z,22.22
2018-08-02T01:29:16.787Z,22.17
2018-08-02T01:30:16.801Z,22.15
2018-08-02T01:31:16.819Z,22.00
2018-08-02T01:32:16.881Z,22.14
2018-08-02T01:33:16.862Z,22.09
2018-08-02T01:34:16.871Z,22.03
2018-08-02T01:35:16.933Z,22.05
2018-08-02T01:36:17.179Z,22.12
2018-08-02T01:37:17.004Z,21.96
2018-08-02T01:38:16.955Z,22.12
2018-08-02T01:39:16.962Z,22.14
2018-08-02T01:40:16.977Z,22.03
2018-08-02T01:41:16.997Z,22.06
2018-08-02T01:42:17.015Z,22.09
2018-08-02T01:43:17.035Z,22.12
2018-08-02T01:44:17.054Z,22.06
2018-08-02T01:45:17.072Z,22.12
2018-08-02T01:46:17.083Z,22.03
2018-08-02T01:47:17.124Z,22.07
2018-08-02T01:48:17.122Z,22.12
2018-08-02T01:49:17.138Z,22.07
2018-08-02T01:50:17.154Z,22.09
2018-08-02T01:51:17.171Z,22.15
2018-08-02T01:52:17.191Z,22.09
2018-08-02T01:53:17.211Z,22.06
2018-08-02T01:54:17.227Z,22.10
2018-08-02T01:55:17.243Z,22.06
2018-08-02T01:56:17.261Z,22.09
2018-08-02T01:57:17.287Z,22.14
2018-08-02T01:58:17.308Z,22.10
2018-08-02T01:59:17.319Z,22.06
2018-08-02T02:00:17.361Z,22.07
2018-08-02T02:01:17.349Z,22.02
2018-08-02T02:02:17.385Z,22.02
2018-08-02T02:03:17.383Z,22.06
2018-08-02T02:04:17.402Z,22.05
2018-08-02T02:05:17.419Z,22.07
2018-08-02T02:06:17.437Z,22.03
2018-08-02T02:07:17.456Z,22.02
2018-08-02T02:08:17.470Z,22.05
2018-08-02T02:09:17.490Z,22.07
2018-08-02T02:10:17.533Z,22.10
2018-08-02T02:11:17.525Z,22.06
2018-08-02T02:12:17.642Z,22.06
2018-08-02T02:13:17.614Z,22.02
2018-08-02T02:14:17.587Z,21.98
2018-08-02T02:15:17.593Z,21.96
2018-08-02T02:16:17.616Z,21.98
2018-08-02T02:17:17.644Z,22.00
2018-08-02T02:18:17.652Z,21.98
2018-08-02T02:19:17.665Z,22.05
2018-08-02T02:20:17.684Z,21.94
2018-08-02T02:21:17.699Z,22.03
2018-08-02T02:22:17.719Z,21.96
2018-08-02T02:23:17.737Z,21.94
2018-08-02T02:24:17.751Z,21.96
2018-08-02T02:25:17.764Z,21.83
2018-08-02T02:26:17.786Z,21.84
2018-08-02T02:27:17.801Z,21.99
2018-08-02T02:28:17.839Z,21.84
2018-08-02T02:29:17.840Z,21.86
2018-08-02T02:30:17.873Z,21.86
2018-08-02T02:31:17.875Z,21.90
2018-08-02T02:32:17.888Z,21.84
2018-08-02T02:33:17.904Z,21.84
2018-08-02T02:34:17.926Z,21.83
2018-08-02T02:35:17.937Z,21.88
2018-08-02T02:36:17.955Z,21.82
2018-08-02T02:37:17.973Z,21.77
2018-08-02T02:38:17.991Z,21.86
2018-08-02T02:39:18.007Z,21.86
2018-08-02T02:40:18.026Z,21.79
2018-08-02T02:41:18.044Z,21.84
2018-08-02T02:42:18.060Z,21.82
2018-08-02T02:43:18.087Z,21.83
2018-08-02T02:44:18.096Z,21.77
2018-08-02T02:45:18.153Z,21.77
2018-08-02T02:46:18.183Z,21.71
2018-08-02T02:47:18.167Z,21.84
2018-08-02T02:48:18.165Z,21.79
2018-08-02T02:49:18.185Z,21.74
2018-08-02T02:50:18.205Z,21.74
2018-08-02T02:51:18.217Z,21.68
2018-08-02T02:52:18.236Z,21.74
2018-08-02T02:53:18.251Z,21.75
2018-08-02T02:54:18.271Z,21.79
2018-08-02T02:55:18.292Z,21.75
2018-08-02T02:56:18.308Z,21.72
2018-08-02T02:57:18.329Z,21.79
2018-08-02T02:58:18.352Z,21.83
2018-08-02T02:59:18.442Z,21.90
2018-08-02T03:00:18.520Z,21.79
2018-08-02T03:01:18.478Z,21.72
2018-08-02T03:02:18.420Z,21.74
2018-08-02T03:03:18.445Z,21.72
2018-08-02T03:04:18.446Z,21.72
2018-08-02T03:05:18.466Z,21.68
2018-08-02T03:06:18.479Z,21.74
2018-08-02T03:07:18.498Z,21.68
2018-08-02T03:08:18.520Z,21.64
2018-08-02T03:09:18.533Z,21.69
2018-08-02T03:10:18.550Z,21.61
2018-08-02T03:11:18.569Z,21.67
2018-08-02T03:12:18.589Z,21.67
2018-08-02T03:13:18.601Z,21.59
2018-08-02T03:14:18.619Z,21.65
2018-08-02T03:15:18.646Z,21.62
2018-08-02T03:16:18.654Z,21.62
2018-08-02T03:17:18.677Z,21.61
2018-08-02T03:18:18.698Z,21.64
2018-08-02T03:19:19.017Z,21.53
2018-08-02T03:20:18.738Z,21.58
2018-08-02T03:21:18.742Z,21.62
2018-08-02T03:22:18.761Z,21.61
2018-08-02T03:23:18.777Z,21.52
2018-08-02T03:24:18.796Z,21.54
2018-08-02T03:25:18.811Z,21.52
2018-08-02T03:26:18.827Z,21.61
2018-08-02T03:27:18.869Z,21.50
2018-08-02T03:28:18.866Z,21.52
2018-08-02T03:29:18.881Z,21.50
2018-08-02T03:30:18.898Z,21.52
2018-08-02T03:31:18.928Z,21.53
2018-08-02T03:32:18.939Z,21.46
2018-08-02T03:33:18.951Z,21.52
2018-08-02T03:34:19.029Z,21.44
2018-08-02T03:35:18.983Z,21.49
2018-08-02T03:36:19.003Z,21.43
2018-08-02T03:37:19.021Z,21.42
2018-08-02T03:38:19.038Z,21.32
2018-08-02T03:39:19.104Z,21.46
2018-08-02T03:40:19.122Z,21.37
2018-08-02T03:41:19.091Z,21.38
2018-08-02T03:42:19.107Z,21.35
2018-08-02T03:43:19.139Z,21.44
2018-08-02T03:44:19.183Z,21.46
2018-08-02T03:45:19.159Z,21.44
2018-08-02T03:46:19.220Z,21.37
2018-08-02T03:47:19.194Z,21.42
2018-08-02T03:48:19.212Z,21.37
2018-08-02T03:49:19.259Z,21.31
2018-08-02T03:50:19.301Z,21.27
2018-08-02T03:51:19.489Z,21.27
2018-08-02T03:52:19.335Z,21.32
2018-08-02T03:53:19.299Z,21.27
2018-08-02T03:54:19.316Z,21.24
2018-08-02T03:55:19.331Z,21.31
2018-08-02T03:56:19.350Z,21.28
2018-08-02T03:57:19.366Z,21.28
2018-08-02T03:58:19.389Z,21.31
2018-08-02T03:59:19.401Z,21.31
2018-08-02T04:00:19.420Z,21.28
2018-08-02T04:01:19.435Z,21.27
2018-08-02T04:02:19.451Z,21.34
2018-08-02T04:03:19.539Z,21.27
2018-08-02T04:06:20.133Z,21.28
2018-08-02T04:07:19.544Z,21.37
2018-08-02T04:08:19.556Z,21.32
2018-08-02T04:09:19.626Z,21.32
2018-08-02T04:10:19.593Z,21.31
2018-08-02T04:11:19.607Z,21.27
2018-08-02T04:12:19.626Z,21.28
2018-08-02T04:13:19.643Z,21.24
2018-08-02T04:14:19.683Z,21.24
2018-08-02T04:15:19.756Z,21.14
2018-08-02T04:16:19.697Z,21.24
2018-08-02T04:17:19.711Z,21.19
2018-08-02T04:18:19.729Z,21.21
2018-08-02T04:19:19.746Z,21.16
2018-08-02T04:20:19.765Z,21.21
2018-08-02T04:21:19.789Z,21.17
2018-08-02T04:22:19.799Z,21.21
2018-08-02T04:23:19.817Z,21.13
2018-08-02T04:24:19.937Z,21.21
2018-08-02T04:25:19.863Z,21.21
2018-08-02T04:26:19.952Z,21.14
2018-08-02T04:27:19.902Z,21.06
2018-08-02T04:29:19.923Z,21.10
2018-08-02T04:30:19.943Z,21.19
2018-08-02T04:31:19.960Z,21.16
2018-08-02T04:32:19.979Z,21.28
2018-08-02T04:33:19.988Z,21.24
2018-08-02T04:34:20.010Z,21.31
2018-08-02T04:35:20.024Z,21.24
2018-08-02T04:36:20.041Z,21.24
2018-08-02T04:37:20.069Z,21.27
2018-08-02T04:38:20.135Z,21.35
2018-08-02T04:39:20.096Z,21.34
2018-08-02T04:40:20.118Z,21.32
2018-08-02T04:41:20.128Z,21.28
2018-08-02T04:42:20.174Z,21.25
2018-08-02T04:43:20.163Z,21.34
2018-08-02T04:44:20.181Z,21.25
2018-08-02T04:45:20.204Z,21.46
2018-08-02T04:46:20.213Z,21.47
2018-08-02T04:47:20.233Z,21.32
2018-08-02T04:48:20.252Z,21.43
2018-08-02T04:49:20.267Z,21.38
2018-08-02T04:50:20.284Z,21.35
2018-08-02T04:51:20.381Z,21.43
2018-08-02T04:52:20.320Z,21.46
2018-08-02T04:53:20.343Z,21.43
2018-08-02T04:54:20.369Z,21.43
2018-08-02T04:55:20.596Z,21.50
2018-08-02T04:56:20.434Z,21.52
2018-08-02T04:57:20.402Z,21.44
2018-08-02T04:58:20.423Z,21.40
2018-08-02T04:59:20.596Z,21.49
2018-08-02T05:00:20.998Z,21.56
2018-08-02T05:01:20.593Z,21.50
2018-08-02T05:02:20.492Z,21.54
2018-08-02T05:03:21.527Z,21.50
2018-08-02T05:04:20.534Z,21.53
2018-08-02T05:05:20.546Z,21.50
2018-08-02T05:06:20.562Z,21.52
2018-08-02T05:07:20.578Z,21.61
2018-08-02T05:08:20.605Z,21.53
2018-08-02T05:09:20.651Z,21.68
2018-08-02T05:10:20.687Z,21.62
2018-08-02T05:11:20.651Z,21.61
2018-08-02T05:12:20.686Z,21.58
2018-08-02T05:13:20.726Z,21.61
2018-08-02T05:14:20.702Z,21.65
2018-08-02T05:15:20.717Z,21.71
2018-08-02T05:16:20.738Z,21.65
2018-08-02T05:17:20.804Z,21.59
2018-08-02T05:18:20.771Z,21.61
2018-08-02T05:19:20.797Z,21.64
2018-08-02T05:20:20.819Z,21.67
2018-08-02T05:21:20.822Z,21.58
2018-08-02T05:22:20.846Z,21.67
2018-08-02T05:23:20.869Z,21.80
2018-08-02T05:24:20.881Z,21.79
2018-08-02T05:25:20.926Z,21.79
2018-08-02T05:26:20.938Z,21.84
2018-08-02T05:27:20.947Z,21.88
2018-08-02T05:28:20.945Z,21.86
2018-08-02T05:29:21.161Z,21.80
2018-08-02T05:30:21.023Z,21.80
2018-08-02T05:31:21.004Z,21.82
2018-08-02T05:32:21.046Z,21.80
2018-08-02T05:33:21.055Z,21.79
2018-08-02T05:34:21.268Z,21.99
2018-08-02T05:35:21.277Z,21.84
2018-08-02T05:36:21.493Z,21.96
2018-08-02T05:37:21.116Z,21.94
2018-08-02T05:38:21.119Z,21.96
2018-08-02T05:39:21.152Z,22.05
2018-08-02T05:40:21.188Z,22.06
2018-08-02T05:41:21.203Z,22.12
2018-08-02T05:42:21.200Z,22.03
2018-08-02T05:43:21.251Z,22.17
2018-08-02T05:44:21.224Z,22.21
2018-08-02T05:45:21.260Z,22.14
2018-08-02T05:46:21.303Z,22.18
2018-08-02T05:47:21.310Z,22.33
2018-08-02T05:48:21.305Z,22.30
2018-08-02T05:49:21.346Z,22.33
2018-08-02T05:50:21.378Z,22.37
2018-08-02T05:51:21.349Z,22.49
2018-08-02T05:52:21.364Z,22.67
2018-08-02T05:53:21.392Z,22.52
2018-08-02T05:54:21.404Z,22.46
2018-08-02T05:56:21.433Z,22.61
2018-08-02T05:57:21.467Z,22.64
2018-08-02T05:58:21.465Z,22.75
2018-08-02T05:59:21.484Z,22.79
2018-08-02T06:00:21.534Z,22.82
2018-08-02T06:01:21.574Z,22.91
2018-08-02T06:02:21.539Z,22.94
2018-08-02T06:03:21.568Z,22.95
2018-08-02T06:04:21.716Z,22.95
2018-08-02T06:06:22.132Z,23.01
2018-08-02T06:07:21.618Z,23.17
2018-08-02T06:08:21.641Z,23.05
2018-08-02T06:09:21.676Z,23.10
2018-08-02T06:10:21.672Z,23.01
2018-08-02T06:11:21.896Z,23.09
2018-08-02T06:12:21.712Z,23.10
2018-08-02T06:13:21.730Z,23.15
2018-08-02T06:14:21.767Z,23.10
2018-08-02T06:15:21.928Z,23.02
2018-08-02T06:16:21.787Z,23.10
2018-08-02T06:17:21.796Z,23.16
2018-08-02T06:18:21.841Z,23.16
2018-08-02T06:19:21.834Z,23.23
2018-08-02T06:20:21.853Z,23.28
2018-08-02T06:21:21.879Z,23.28
2018-08-02T06:22:21.883Z,23.38
2018-08-02T06:23:21.905Z,23.38
2018-08-02T06:24:21.922Z,23.36
2018-08-02T06:25:21.941Z,23.48
2018-08-02T06:26:21.957Z,23.50
2018-08-02T06:27:21.987Z,23.57
2018-08-02T06:28:22.009Z,23.53
2018-08-02T06:29:22.011Z,23.66
2018-08-02T06:30:22.089Z,23.60
2018-08-02T06:31:23.016Z,23.63
2018-08-02T06:32:22.919Z,23.65
2018-08-02T06:34:22.263Z,23.69
2018-08-02T06:36:22.579Z,23.87
2018-08-02T06:37:22.948Z,23.87
2018-08-02T06:38:22.333Z,23.88
2018-08-02T06:39:22.454Z,23.97
2018-08-02T06:40:22.536Z,23.97
2018-08-02T06:41:22.298Z,23.98
2018-08-02T06:42:22.310Z,24.00
2018-08-02T06:43:22.261Z,24.08
2018-08-02T06:44:22.279Z,24.09
2018-08-02T06:45:22.299Z,24.16
2018-08-02T06:46:22.634Z,24.20
2018-08-02T06:47:22.335Z,24.27
2018-08-02T06:48:22.372Z,24.27
2018-08-02T06:49:22.375Z,24.32
2018-08-02T06:50:22.387Z,24.31
2018-08-02T06:51:22.407Z,24.32
2018-08-02T06:52:22.433Z,24.35
2018-08-02T06:53:22.547Z,24.28
2018-08-02T06:54:22.463Z,24.37
2018-08-02T06:55:22.577Z,24.32
2018-08-02T06:56:22.520Z,24.39
2018-08-02T06:57:22.525Z,24.35
2018-08-02T06:58:22.532Z,24.45
2018-08-02T06:59:22.550Z,24.46
2018-08-02T07:00:22.570Z,24.53
2018-08-02T07:01:22.598Z,24.46
2018-08-02T07:02:22.659Z,24.52
2018-08-02T07:03:22.746Z,24.58
2018-08-02T07:04:22.643Z,24.53
2018-08-02T07:05:22.671Z,24.60
2018-08-02T07:07:23.972Z,24.67
2018-08-02T07:09:23.465Z,24.68
2018-08-02T07:10:23.180Z,24.67
2018-08-02T07:11:22.773Z,24.78
2018-08-02T07:12:22.851Z,24.84
2018-08-02T07:13:22.846Z,24.83
2018-08-02T07:14:22.943Z,24.95
2018-08-02T07:15:23.028Z,24.96
2018-08-02T07:16:22.860Z,25.03
2018-08-02T07:17:22.879Z,25.00
2018-08-02T07:18:22.903Z,25.09
2018-08-02T07:19:22.919Z,25.09
2018-08-02T07:20:22.953Z,25.15
2018-08-02T07:21:22.954Z,25.15
2018-08-02T07:22:22.975Z,25.28
2018-08-02T07:23:22.992Z,25.23
2018-08-02T07:24:23.057Z,25.21
2018-08-02T07:25:23.029Z,25.27
2018-08-02T07:26:23.063Z,25.33
2018-08-02T07:27:23.065Z,25.32
2018-08-02T07:28:23.086Z,25.40
2018-08-02T07:29:23.103Z,25.42
2018-08-02T07:30:23.120Z,25.39
2018-08-02T07:32:23.177Z,25.51
2018-08-02T07:33:23.242Z,25.47
2018-08-02T07:34:23.195Z,25.57
2018-08-02T07:35:23.215Z,25.47
2018-08-02T07:36:23.233Z,25.54
2018-08-02T07:37:23.254Z,25.55
2018-08-02T07:38:23.271Z,25.61
2018-08-02T07:39:23.293Z,25.60
2018-08-02T07:40:23.307Z,25.60
2018-08-02T07:41:23.337Z,25.65
2018-08-02T07:42:23.347Z,25.60
2018-08-02T07:43:23.422Z,25.70
2018-08-02T07:44:23.387Z,25.72
2018-08-02T07:45:23.405Z,25.85
2018-08-02T07:46:23.422Z,25.77
2018-08-02T07:47:23.456Z,25.80
2018-08-02T07:48:23.466Z,25.82
2018-08-02T07:49:23.484Z,25.91
2018-08-02T07:50:23.510Z,25.87
2018-08-02T07:51:23.522Z,25.91
2018-08-02T07:52:23.534Z,25.97
2018-08-02T07:53:23.567Z,26.01
2018-08-02T07:54:23.571Z,25.95
2018-08-02T07:56:23.614Z,26.06
2018-08-02T07:57:23.630Z,26.15
2018-08-02T07:58:23.647Z,26.12
2018-08-02T07:59:23.667Z,26.17
2018-08-02T08:00:23.711Z,26.20
2018-08-02T08:01:23.709Z,26.32
2018-08-02T08:02:23.730Z,26.35
2018-08-02T08:03:23.827Z,26.37
2018-08-02T08:04:23.765Z,26.51
2018-08-02T08:05:23.782Z,26.55
2018-08-02T08:06:24.433Z,26.50
2018-08-02T08:07:23.879Z,26.48
2018-08-02T08:08:23.839Z,26.48
2018-08-02T08:09:23.986Z,26.60
2018-08-02T08:10:23.949Z,26.50
2018-08-02T08:11:23.926Z,26.48
2018-08-02T08:13:23.948Z,26.67
2018-08-02T08:14:24.110Z,26.63
2018-08-02T08:15:23.996Z,26.80
2018-08-02T08:16:24.050Z,26.81
2018-08-02T08:17:24.020Z,26.80
2018-08-02T08:18:24.092Z,26.91
2018-08-02T08:19:24.055Z,26.87
2018-08-02T08:20:25.816Z,26.94
2018-08-02T08:21:24.098Z,26.91
2018-08-02T08:22:24.112Z,27.00
2018-08-02T08:23:24.138Z,26.99
2018-08-02T08:24:24.153Z,27.06
2018-08-02T08:25:24.490Z,27.03
2018-08-02T08:26:24.194Z,27.04
2018-08-02T08:27:24.223Z,27.03
2018-08-02T08:28:24.225Z,27.04
2018-08-02T08:29:24.249Z,27.07
2018-08-02T08:30:24.289Z,27.07
2018-08-02T08:31:24.293Z,27.07
2018-08-02T08:32:24.335Z,27.06
2018-08-02T08:33:24.370Z,27.18
2018-08-02T08:34:24.351Z,27.13
2018-08-02T08:35:24.407Z,27.22
2018-08-02T08:36:24.442Z,27.22
2018-08-02T08:37:24.732Z,27.27
2018-08-02T08:38:24.421Z,27.31
2018-08-02T08:39:24.476Z,27.27
2018-08-02T08:40:24.461Z,27.39
2018-08-02T08:41:24.488Z,27.44
2018-08-02T08:42:24.503Z,27.43
2018-08-02T08:43:24.886Z,27.41
2018-08-02T08:44:24.546Z,27.54
2018-08-02T08:45:24.553Z,27.60
2018-08-02T08:46:24.730Z,27.63
2018-08-02T08:47:24.648Z,27.55
2018-08-02T08:48:24.641Z,27.74
2018-08-02T08:49:24.636Z,27.81
2018-08-02T08:50:24.673Z,27.79
2018-08-02T08:51:24.715Z,27.85
2018-08-02T08:52:24.812Z,27.90
2018-08-02T08:53:24.711Z,27.82
2018-08-02T08:54:24.784Z,27.81
2018-08-02T08:55:24.789Z,27.81
2018-08-02T08:56:24.833Z,27.85
2018-08-02T08:57:24.793Z,27.87
2018-08-02T08:58:24.809Z,27.79
2018-08-02T08:59:24.826Z,27.85
2018-08-02T09:00:24.888Z,27.88
2018-08-02T09:02:24.887Z,27.94
2018-08-02T09:03:24.928Z,27.92
2018-08-02T09:04:24.939Z,28.06
2018-08-02T09:05:24.949Z,28.02
2018-08-02T09:07:24.994Z,28.02
2018-08-02T09:08:25.009Z,28.00
2018-08-02T09:09:25.056Z,28.06
2018-08-02T09:10:25.060Z,28.14
2018-08-02T09:11:25.065Z,28.22
2018-08-02T09:12:25.093Z,28.21
2018-08-02T09:13:25.105Z,28.30
2018-08-02T09:14:25.262Z,28.37
2018-08-02T09:15:25.147Z,28.33
2018-08-02T09:16:25.177Z,28.34
2018-08-02T09:17:25.186Z,28.44
2018-08-02T09:18:25.207Z,28.46
2018-08-02T09:19:25.368Z,28.56
2018-08-02T09:20:25.263Z,28.67
2018-08-02T09:22:25.330Z,28.71
2018-08-02T09:23:25.324Z,28.66
2018-08-02T09:24:25.407Z,28.68
2018-08-02T09:25:25.358Z,28.67
2018-08-02T09:26:25.555Z,28.68
2018-08-02T09:27:25.574Z,28.67
2018-08-02T09:28:25.462Z,28.70
2018-08-02T09:29:25.426Z,28.77
2018-08-02T09:30:25.833Z,28.83
2018-08-02T09:31:25.465Z,28.83
2018-08-02T09:32:25.607Z,28.85
2018-08-02T09:33:25.679Z,28.67
2018-08-02T09:34:25.645Z,28.66
2018-08-02T09:35:25.557Z,28.64
2018-08-02T09:36:25.567Z,28.71
2018-08-02T09:37:25.592Z,28.80
2018-08-02T09:38:25.611Z,28.85
2018-08-02T09:39:25.632Z,28.95
2018-08-02T09:40:25.656Z,29.15
2018-08-02T09:41:25.667Z,29.16
2018-08-02T09:42:25.688Z,29.21
2018-08-02T09:43:25.711Z,29.27
2018-08-02T09:44:25.834Z,29.34
2018-08-02T09:45:25.762Z,29.39
2018-08-02T09:46:28.332Z,29.42
2018-08-02T09:47:26.598Z,29.48
2018-08-02T09:49:25.843Z,29.49
2018-08-02T09:50:25.849Z,29.34
2018-08-02T09:51:25.893Z,29.42
2018-08-02T09:52:25.902Z,29.45
2018-08-02T09:53:25.915Z,29.42
2018-08-02T09:54:26.197Z,29.43
2018-08-02T09:55:25.957Z,29.52
2018-08-02T09:56:26.128Z,29.53
2018-08-02T09:57:25.997Z,29.58
2018-08-02T09:58:26.014Z,29.58
2018-08-02T09:59:26.041Z,29.64
2018-08-02T10:00:26.532Z,29.67
2018-08-02T10:01:26.077Z,29.60
2018-08-02T10:02:26.108Z,29.65
2018-08-02T10:03:26.180Z,29.63
2018-08-02T10:04:26.140Z,29.64
2018-08-02T10:05:26.163Z,29.58
2018-08-02T10:06:26.189Z,29.67
2018-08-02T10:07:26.208Z,29.70
2018-08-02T10:08:26.220Z,29.70
2018-08-02T10:09:26.304Z,29.80
2018-08-02T10:10:26.427Z,29.79
2018-08-02T10:11:26.306Z,29.89
2018-08-02T10:12:27.152Z,29.95
2018-08-02T10:13:26.692Z,30.01
2018-08-02T10:14:26.345Z,30.13
2018-08-02T10:15:26.375Z,30.13
2018-08-02T10:16:27.172Z,30.17
2018-08-02T10:17:26.421Z,30.13
2018-08-02T10:18:26.837Z,30.10
2018-08-02T10:19:26.452Z,30.10
2018-08-02T10:20:26.467Z,30.11
2018-08-02T10:21:27.332Z,30.15
2018-08-02T10:22:26.674Z,30.11
2018-08-02T10:23:27.184Z,30.11
2018-08-02T10:24:26.590Z,30.17
2018-08-02T10:25:26.578Z,30.24
2018-08-02T10:26:26.600Z,30.31
2018-08-02T10:27:26.618Z,30.34
2018-08-02T10:28:26.662Z,30.43
2018-08-02T10:29:26.653Z,30.42
2018-08-02T10:30:26.790Z,30.46
2018-08-02T10:31:26.716Z,30.49
2018-08-02T10:32:26.731Z,30.45
2018-08-02T10:33:27.479Z,30.31
2018-08-02T10:34:26.761Z,30.26
2018-08-02T10:35:26.790Z,30.32
2018-08-02T10:37:26.955Z,30.43
2018-08-02T10:38:26.848Z,30.58
2018-08-02T10:39:26.863Z,30.42
2018-08-02T10:40:26.887Z,30.46
2018-08-02T10:41:26.914Z,30.51
2018-08-02T10:42:26.932Z,30.64
2018-08-02T10:43:27.005Z,30.60
2018-08-02T10:44:27.022Z,30.61
2018-08-02T10:45:26.991Z,30.58
2018-08-02T10:46:27.044Z,30.49
2018-08-02T10:47:27.826Z,30.61
2018-08-02T10:48:27.053Z,30.70
2018-08-02T10:49:27.067Z,30.64
2018-08-02T10:50:27.206Z,30.72
2018-08-02T10:51:27.117Z,30.75
2018-08-02T10:52:27.140Z,30.72
2018-08-02T10:53:27.157Z,30.67
2018-08-02T10:54:27.178Z,30.70
2018-08-02T10:55:27.193Z,30.70
2018-08-02T10:56:27.215Z,30.60
2018-08-02T10:57:27.237Z,30.72
2018-08-02T10:58:27.258Z,30.62
2018-08-02T10:59:29.075Z,30.70
2018-08-02T11:00:27.326Z,30.69
2018-08-02T11:01:27.363Z,30.76
2018-08-02T11:02:27.341Z,30.76
2018-08-02T11:03:27.374Z,30.65
2018-08-02T11:04:27.398Z,30.70
2018-08-02T11:06:27.431Z,30.80
2018-08-02T11:07:27.494Z,30.82
2018-08-02T11:08:27.493Z,30.83
2018-08-02T11:09:29.937Z,30.94
2018-08-02T11:10:27.926Z,30.95
2018-08-02T11:11:27.530Z,31.02
2018-08-02T11:12:27.564Z,30.99
2018-08-02T11:14:27.606Z,31.10
2018-08-02T11:15:27.619Z,31.12
2018-08-02T11:16:27.691Z,31.14
2018-08-02T11:17:27.663Z,31.20
2018-08-02T11:18:27.679Z,31.20
2018-08-02T11:19:27.710Z,31.44
2018-08-02T11:20:27.725Z,31.38
2018-08-02T11:21:27.752Z,31.41
2018-08-02T11:22:27.763Z,31.31
2018-08-02T11:23:27.788Z,31.32
2018-08-02T11:24:27.872Z,31.51
2018-08-02T11:25:27.845Z,31.51
2018-08-02T11:26:27.881Z,31.70
2018-08-02T11:27:28.298Z,31.68
2018-08-02T11:28:28.030Z,31.84
2018-08-02T11:29:27.914Z,31.85
2018-08-02T11:30:27.934Z,31.81
2018-08-02T11:31:29.075Z,31.84
2018-08-02T11:32:28.564Z,31.88
2018-08-02T11:33:28.583Z,31.99
2018-08-02T11:35:28.333Z,32.03
2018-08-02T11:36:28.081Z,32.08
2018-08-02T11:37:28.376Z,32.10
2018-08-02T11:38:28.254Z,32.10
2018-08-02T11:39:28.894Z,32.00
2018-08-02T11:40:28.228Z,31.96
2018-08-02T11:41:28.195Z,32.04
2018-08-02T11:42:29.270Z,31.95
2018-08-02T11:43:28.364Z,31.75
2018-08-02T11:44:28.293Z,31.66
2018-08-02T11:45:28.326Z,31.72
2018-08-02T11:46:28.288Z,31.85
2018-08-02T11:47:28.308Z,31.70
2018-08-02T11:48:28.328Z,31.61
2018-08-02T11:49:28.381Z,31.65
2018-08-02T11:50:28.515Z,31.66
2018-08-02T11:51:28.440Z,31.65
2018-08-02T11:52:28.408Z,31.75
2018-08-02T11:53:28.437Z,31.73
2018-08-02T11:54:28.456Z,31.85
2018-08-02T11:55:28.476Z,31.91
2018-08-02T11:56:28.572Z,31.99
2018-08-02T11:57:28.599Z,32.14
2018-08-02T11:58:28.553Z,32.03
2018-08-02T11:59:28.576Z,31.95
2018-08-02T12:00:28.591Z,32.04
2018-08-02T12:01:28.616Z,31.95
2018-08-02T12:02:28.624Z,31.96
2018-08-02T12:03:28.649Z,32.00
2018-08-02T12:04:28.680Z,31.81
2018-08-02T12:05:28.690Z,31.78
2018-08-02T12:06:28.721Z,31.61
2018-08-02T12:07:28.741Z,31.66
2018-08-02T12:08:28.760Z,31.69
2018-08-02T12:09:28.854Z,31.78
2018-08-02T12:10:28.924Z,31.91
2018-08-02T12:11:28.823Z,31.92
2018-08-02T12:12:28.898Z,32.07
2018-08-02T12:13:28.989Z,32.26
2018-08-02T12:14:28.952Z,32.30
2018-08-02T12:15:29.703Z,32.40
2018-08-02T12:16:29.020Z,32.51
2018-08-02T12:17:28.959Z,32.52
2018-08-02T12:18:29.012Z,32.44
2018-08-02T12:19:29.001Z,32.33
2018-08-02T12:20:29.030Z,32.40
2018-08-02T12:21:29.052Z,32.51
2018-08-02T12:22:29.070Z,32.62
2018-08-02T12:23:29.102Z,32.82
2018-08-02T12:24:29.182Z,32.89
2018-08-02T12:25:29.171Z,32.79
2018-08-02T12:26:29.155Z,32.78
2018-08-02T12:27:29.177Z,32.66
2018-08-02T12:28:29.205Z,32.55
2018-08-02T12:29:29.222Z,32.44
2018-08-02T12:30:29.241Z,32.59
2018-08-02T12:31:29.280Z,32.59
2018-08-02T12:32:29.290Z,32.62
2018-08-02T12:33:29.320Z,32.81
2018-08-02T12:34:29.343Z,33.03
2018-08-02T12:35:29.354Z,33.11
2018-08-02T12:36:29.376Z,33.28
2018-08-02T12:37:29.399Z,33.26
2018-08-02T12:38:29.422Z,33.16
2018-08-02T12:39:29.448Z,33.23
2018-08-02T12:40:29.540Z,33.28
2018-08-02T12:41:29.661Z,33.35
2018-08-02T12:42:29.568Z,33.37
2018-08-02T12:43:29.717Z,33.53
2018-08-02T12:44:29.556Z,33.59
2018-08-02T12:45:29.586Z,33.66
2018-08-02T12:46:29.603Z,33.59
2018-08-02T12:47:29.629Z,33.39
2018-08-02T12:48:29.694Z,33.42
2018-08-02T12:49:29.728Z,33.41
2018-08-02T12:50:29.694Z,33.47
2018-08-02T12:51:29.714Z,33.63
2018-08-02T12:52:29.839Z,33.59
2018-08-02T12:53:29.760Z,33.63
2018-08-02T12:54:29.897Z,33.78
2018-08-02T12:55:29.806Z,33.93
2018-08-02T12:56:29.827Z,33.79
2018-08-02T12:57:29.866Z,33.66
2018-08-02T12:58:29.881Z,33.76
2018-08-02T12:59:29.896Z,33.86
2018-08-02T13:00:30.036Z,33.90
2018-08-02T13:01:29.944Z,33.98
2018-08-02T13:02:29.979Z,33.91
2018-08-02T13:03:30.321Z,34.12
2018-08-02T13:04:30.018Z,33.93
2018-08-02T13:05:30.065Z,33.93
2018-08-02T13:06:30.067Z,34.05
2018-08-02T13:07:30.090Z,34.27
2018-08-02T13:08:30.118Z,34.35
2018-08-02T13:09:30.225Z,34.54
2018-08-02T13:10:30.463Z,34.46
2018-08-02T13:11:30.547Z,34.32
2018-08-02T13:12:30.381Z,34.31
2018-08-02T13:14:30.278Z,34.46
2018-08-02T13:15:30.292Z,34.64